Portada
METAR-TAF:

METAR-TAF

Aeropuertos :

Aeropuerto de Friedrichshafen

Friedrichshafen, Alemania

latitud: 47-40N, longitud: 009-31E, altitud: 416 m

Observación

El informe se hizo hace 37 minutos, a las 07:50 UTC
Viento 4 kt del norte-noreste
Temperatura 0°C
Humedad 74%
Presión 1024 hPa
Visibilidad 10 km o más
sin nubes por debajo de 1500 m y sin presencia de cumulonimbus.

METAR: EDNY 070750Z 03004KT CAVOK M00/M04 Q1024

Hora: 09:27 (08:27 UTC)

Pronóstico

El informe se hizo hace 3 horas y 27 minutos, a las 05:00 UTC
Pronóstico válido del 07 a las 06 UTC al 08 a las 06 UTC
Viento 3 kt del noreste
Visibilidad 10 km o más
Cielo nuboso a una altura de 5000 ft
Evolucionando progresivamente
del 07 a las 10 UTC al 07 a las 12 UTC
Viento 5 kt del oeste-suroeste
Evolucionando progresivamente
del 07 a las 16 UTC al 07 a las 19 UTC
Viento 3 kt del norte-noreste

TAF: EDNY 070500Z 0706/0806 04003KT 9999 BKN050 BECMG 0710/0712 24005KT BECMG 0716/0719 03003KT

Observaciones y pronósticos meteorológicos de más de 4000 aeropuertos (mensajes METAR y TAF).

Los puntos amarillos y rojos representan las estaciones disponibles.

Ponga el ratón en el punto deseado para ver el nombre de la estación.

Haga clic para ver las observaciones y los pronósticos meteorológicos.

Para cambiar el mapa : haga clic en los botones verdes con una cruz de color negro para hacer un zoom, en el botón verde con un guión para alejar o en las flechas verdes para mapas adyacentes.


METAR-TAF: